sensor_id;sensor_type;location;lat;lon;timestamp;temperature;humidity
21580;DHT22;10951;59.656;9.666;2023-06-14T00:00:23;16.90;56.00
21580;DHT22;10951;59.656;9.666;2023-06-14T00:02:50;16.80;55.60
21580;DHT22;10951;59.656;9.666;2023-06-14T00:05:17;16.80;56.30
21580;DHT22;10951;59.656;9.666;2023-06-14T00:07:44;16.80;56.70
21580;DHT22;10951;59.656;9.666;2023-06-14T00:10:11;16.80;56.30
21580;DHT22;10951;59.656;9.666;2023-06-14T00:12:39;16.70;56.30
21580;DHT22;10951;59.656;9.666;2023-06-14T00:15:07;16.80;56.80
21580;DHT22;10951;59.656;9.666;2023-06-14T00:17:36;16.80;57.40
21580;DHT22;10951;59.656;9.666;2023-06-14T00:20:06;16.70;56.70
21580;DHT22;10951;59.656;9.666;2023-06-14T00:22:34;16.70;57.70
21580;DHT22;10951;59.656;9.666;2023-06-14T00:25:03;16.70;58.00
21580;DHT22;10951;59.656;9.666;2023-06-14T00:27:49;16.50;58.50
21580;DHT22;10951;59.656;9.666;2023-06-14T00:30:17;16.20;59.00
21580;DHT22;10951;59.656;9.666;2023-06-14T00:32:44;16.10;59.40
21580;DHT22;10951;59.656;9.666;2023-06-14T00:35:12;16.00;59.70
21580;DHT22;10951;59.656;9.666;2023-06-14T00:37:39;15.90;60.00
21580;DHT22;10951;59.656;9.666;2023-06-14T00:40:07;15.70;60.20
21580;DHT22;10951;59.656;9.666;2023-06-14T00:42:34;15.70;60.40
21580;DHT22;10951;59.656;9.666;2023-06-14T00:45:01;15.60;60.60
21580;DHT22;10951;59.656;9.666;2023-06-14T00:47:28;15.60;60.90
21580;DHT22;10951;59.656;9.666;2023-06-14T00:49:56;15.60;60.90
21580;DHT22;10951;59.656;9.666;2023-06-14T00:52:23;15.60;60.80
21580;DHT22;10951;59.656;9.666;2023-06-14T00:54:50;15.60;61.20
21580;DHT22;10951;59.656;9.666;2023-06-14T00:57:18;15.70;61.30
21580;DHT22;10951;59.656;9.666;2023-06-14T00:59:48;15.60;60.20
21580;DHT22;10951;59.656;9.666;2023-06-14T01:02:16;15.60;61.20
21580;DHT22;10951;59.656;9.666;2023-06-14T01:04:48;15.60;61.50
21580;DHT22;10951;59.656;9.666;2023-06-14T01:07:56;15.60;61.40
21580;DHT22;10951;59.656;9.666;2023-06-14T01:13:23;15.70;60.80
21580;DHT22;10951;59.656;9.666;2023-06-14T01:15:52;15.70;60.80
21580;DHT22;10951;59.656;9.666;2023-06-14T01:18:21;15.70;60.90
21580;DHT22;10951;59.656;9.666;2023-06-14T01:20:53;15.60;60.70
21580;DHT22;10951;59.656;9.666;2023-06-14T01:23:24;15.70;60.70
21580;DHT22;10951;59.656;9.666;2023-06-14T01:25:52;15.60;60.50
21580;DHT22;10951;59.656;9.666;2023-06-14T01:28:22;15.60;60.50
21580;DHT22;10951;59.656;9.666;2023-06-14T01:30:53;15.60;60.70
21580;DHT22;10951;59.656;9.666;2023-06-14T01:33:24;15.50;60.90
21580;DHT22;10951;59.656;9.666;2023-06-14T01:35:56;15.50;60.90
21580;DHT22;10951;59.656;9.666;2023-06-14T01:38:25;15.40;61.40
21580;DHT22;10951;59.656;9.666;2023-06-14T01:40:54;15.40;61.50
21580;DHT22;10951;59.656;9.666;2023-06-14T01:43:25;15.30;61.90
21580;DHT22;10951;59.656;9.666;2023-06-14T01:45:54;15.20;62.80
21580;DHT22;10951;59.656;9.666;2023-06-14T01:48:22;15.20;63.00
21580;DHT22;10951;59.656;9.666;2023-06-14T01:50:49;15.20;63.20
21580;DHT22;10951;59.656;9.666;2023-06-14T01:53:16;15.20;63.60
21580;DHT22;10951;59.656;9.666;2023-06-14T01:55:43;15.10;62.70
21580;DHT22;10951;59.656;9.666;2023-06-14T01:58:11;15.10;62.90
21580;DHT22;10951;59.656;9.666;2023-06-14T02:00:38;15.10;63.00
21580;DHT22;10951;59.656;9.666;2023-06-14T02:03:04;15.10;63.40
21580;DHT22;10951;59.656;9.666;2023-06-14T02:05:31;15.00;63.00
21580;DHT22;10951;59.656;9.666;2023-06-14T02:07:59;15.00;63.30
21580;DHT22;10951;59.656;9.666;2023-06-14T02:10:26;15.00;63.30
21580;DHT22;10951;59.656;9.666;2023-06-14T02:12:54;15.10;62.40
21580;DHT22;10951;59.656;9.666;2023-06-14T02:15:21;15.10;62.60
21580;DHT22;10951;59.656;9.666;2023-06-14T02:17:51;15.20;62.10
21580;DHT22;10951;59.656;9.666;2023-06-14T02:20:18;15.20;62.10
21580;DHT22;10951;59.656;9.666;2023-06-14T02:22:46;15.30;62.70
21580;DHT22;10951;59.656;9.666;2023-06-14T02:25:14;15.30;62.30
21580;DHT22;10951;59.656;9.666;2023-06-14T02:27:42;15.30;62.00
21580;DHT22;10951;59.656;9.666;2023-06-14T02:30:10;15.30;62.10
21580;DHT22;10951;59.656;9.666;2023-06-14T02:32:37;15.30;62.20
21580;DHT22;10951;59.656;9.666;2023-06-14T02:35:05;15.30;62.00
21580;DHT22;10951;59.656;9.666;2023-06-14T02:37:34;15.40;62.80
21580;DHT22;10951;59.656;9.666;2023-06-14T02:40:01;15.30;62.40
21580;DHT22;10951;59.656;9.666;2023-06-14T02:42:30;15.30;62.70
21580;DHT22;10951;59.656;9.666;2023-06-14T02:44:57;15.30;62.80
21580;DHT22;10951;59.656;9.666;2023-06-14T02:47:24;15.30;63.20
21580;DHT22;10951;59.656;9.666;2023-06-14T02:49:51;15.30;63.20
21580;DHT22;10951;59.656;9.666;2023-06-14T02:52:18;15.30;63.40
21580;DHT22;10951;59.656;9.666;2023-06-14T02:54:45;15.30;63.30
21580;DHT22;10951;59.656;9.666;2023-06-14T02:57:14;15.30;62.30
21580;DHT22;10951;59.656;9.666;2023-06-14T02:59:42;15.30;63.10
21580;DHT22;10951;59.656;9.666;2023-06-14T03:02:09;15.30;62.70
21580;DHT22;10951;59.656;9.666;2023-06-14T03:04:36;15.30;62.60
21580;DHT22;10951;59.656;9.666;2023-06-14T03:07:11;15.30;63.10
21580;DHT22;10951;59.656;9.666;2023-06-14T03:09:41;15.30;63.00
21580;DHT22;10951;59.656;9.666;2023-06-14T03:12:11;15.30;63.10
21580;DHT22;10951;59.656;9.666;2023-06-14T03:14:38;15.30;63.30
21580;DHT22;10951;59.656;9.666;2023-06-14T03:17:10;15.30;63.60
21580;DHT22;10951;59.656;9.666;2023-06-14T03:19:39;15.30;63.70
21580;DHT22;10951;59.656;9.666;2023-06-14T03:22:08;15.30;62.70
21580;DHT22;10951;59.656;9.666;2023-06-14T03:24:37;15.20;63.80
21580;DHT22;10951;59.656;9.666;2023-06-14T03:27:09;15.20;64.30
21580;DHT22;10951;59.656;9.666;2023-06-14T03:29:39;15.10;64.20
21580;DHT22;10951;59.656;9.666;2023-06-14T03:32:10;15.00;64.50
21580;DHT22;10951;59.656;9.666;2023-06-14T03:34:42;15.10;64.80
21580;DHT22;10951;59.656;9.666;2023-06-14T03:37:15;15.00;64.70
21580;DHT22;10951;59.656;9.666;2023-06-14T03:39:42;15.00;65.00
21580;DHT22;10951;59.656;9.666;2023-06-14T03:42:20;15.00;65.00
21580;DHT22;10951;59.656;9.666;2023-06-14T03:44:48;15.00;65.00
21580;DHT22;10951;59.656;9.666;2023-06-14T03:47:20;15.00;65.00
21580;DHT22;10951;59.656;9.666;2023-06-14T03:49:47;15.00;64.60
21580;DHT22;10951;59.656;9.666;2023-06-14T03:52:14;15.10;64.90
21580;DHT22;10951;59.656;9.666;2023-06-14T03:54:47;15.10;65.00
21580;DHT22;10951;59.656;9.666;2023-06-14T03:57:19;15.10;65.20
21580;DHT22;10951;59.656;9.666;2023-06-14T03:59:50;15.00;65.30
21580;DHT22;10951;59.656;9.666;2023-06-14T04:02:20;15.10;65.10
21580;DHT22;10951;59.656;9.666;2023-06-14T04:04:47;15.10;65.50
21580;DHT22;10951;59.656;9.666;2023-06-14T04:07:15;15.10;65.60
21580;DHT22;10951;59.656;9.666;2023-06-14T04:09:42;15.10;65.80
21580;DHT22;10951;59.656;9.666;2023-06-14T04:12:09;15.10;66.00
21580;DHT22;10951;59.656;9.666;2023-06-14T04:14:39;15.00;66.30
21580;DHT22;10951;59.656;9.666;2023-06-14T04:17:08;15.00;66.80
21580;DHT22;10951;59.656;9.666;2023-06-14T04:19:38;15.30;66.70
21580;DHT22;10951;59.656;9.666;2023-06-14T04:22:05;15.60;65.90
21580;DHT22;10951;59.656;9.666;2023-06-14T04:24:36;16.10;64.90
21580;DHT22;10951;59.656;9.666;2023-06-14T04:27:04;16.60;63.10
21580;DHT22;10951;59.656;9.666;2023-06-14T04:29:31;17.00;62.40
21580;DHT22;10951;59.656;9.666;2023-06-14T04:32:05;17.40;61.10
21580;DHT22;10951;59.656;9.666;2023-06-14T04:34:38;17.80;60.40
21580;DHT22;10951;59.656;9.666;2023-06-14T04:37:07;18.10;59.60
21580;DHT22;10951;59.656;9.666;2023-06-14T04:39:37;18.30;58.70
21580;DHT22;10951;59.656;9.666;2023-06-14T04:42:04;18.40;58.30
21580;DHT22;10951;59.656;9.666;2023-06-14T04:44:34;18.50;58.20
21580;DHT22;10951;59.656;9.666;2023-06-14T04:47:04;18.70;58.00
21580;DHT22;10951;59.656;9.666;2023-06-14T04:49:31;18.80;57.60
21580;DHT22;10951;59.656;9.666;2023-06-14T04:52:00;19.10;57.50
21580;DHT22;10951;59.656;9.666;2023-06-14T04:54:38;19.30;57.00
21580;DHT22;10951;59.656;9.666;2023-06-14T04:57:08;19.60;56.90
21580;DHT22;10951;59.656;9.666;2023-06-14T04:59:36;19.70;56.40
21580;DHT22;10951;59.656;9.666;2023-06-14T05:02:03;19.90;56.30
21580;DHT22;10951;59.656;9.666;2023-06-14T05:04:30;20.10;55.80
21580;DHT22;10951;59.656;9.666;2023-06-14T05:06:58;20.30;55.50
21580;DHT22;10951;59.656;9.666;2023-06-14T05:09:25;20.50;55.30
21580;DHT22;10951;59.656;9.666;2023-06-14T05:11:52;20.60;55.00
21580;DHT22;10951;59.656;9.666;2023-06-14T05:14:20;20.80;54.80
21580;DHT22;10951;59.656;9.666;2023-06-14T05:16:50;20.90;54.70
21580;DHT22;10951;59.656;9.666;2023-06-14T05:19:17;21.20;54.30
21580;DHT22;10951;59.656;9.666;2023-06-14T05:21:44;21.40;54.00
21580;DHT22;10951;59.656;9.666;2023-06-14T05:24:12;21.60;53.90
21580;DHT22;10951;59.656;9.666;2023-06-14T05:26:39;21.80;53.70
21580;DHT22;10951;59.656;9.666;2023-06-14T05:29:06;21.80;53.50
21580;DHT22;10951;59.656;9.666;2023-06-14T05:31:33;21.70;53.50
21580;DHT22;10951;59.656;9.666;2023-06-14T05:34:00;21.80;53.30
21580;DHT22;10951;59.656;9.666;2023-06-14T05:36:27;21.80;53.50
21580;DHT22;10951;59.656;9.666;2023-06-14T05:38:54;21.90;53.40
21580;DHT22;10951;59.656;9.666;2023-06-14T05:41:28;22.00;53.60
21580;DHT22;10951;59.656;9.666;2023-06-14T05:43:56;22.10;53.30
21580;DHT22;10951;59.656;9.666;2023-06-14T05:46:23;22.10;53.10
21580;DHT22;10951;59.656;9.666;2023-06-14T05:48:54;22.10;53.20
21580;DHT22;10951;59.656;9.666;2023-06-14T05:51:22;22.10;53.40
21580;DHT22;10951;59.656;9.666;2023-06-14T05:53:52;22.00;53.40
21580;DHT22;10951;59.656;9.666;2023-06-14T05:56:19;21.80;53.60
21580;DHT22;10951;59.656;9.666;2023-06-14T05:58:47;21.60;53.90
21580;DHT22;10951;59.656;9.666;2023-06-14T06:01:14;21.30;54.50
21580;DHT22;10951;59.656;9.666;2023-06-14T06:03:42;21.10;55.10
21580;DHT22;10951;59.656;9.666;2023-06-14T06:06:13;20.90;55.50
21580;DHT22;10951;59.656;9.666;2023-06-14T06:08:40;20.70;56.00
21580;DHT22;10951;59.656;9.666;2023-06-14T06:11:07;20.60;56.10
21580;DHT22;10951;59.656;9.666;2023-06-14T06:13:34;20.50;56.80
21580;DHT22;10951;59.656;9.666;2023-06-14T06:16:03;20.40;56.90
21580;DHT22;10951;59.656;9.666;2023-06-14T06:18:30;20.30;57.30
21580;DHT22;10951;59.656;9.666;2023-06-14T06:20:57;20.30;57.20
21580;DHT22;10951;59.656;9.666;2023-06-14T06:23:24;20.20;57.00
21580;DHT22;10951;59.656;9.666;2023-06-14T06:25:51;20.10;57.20
21580;DHT22;10951;59.656;9.666;2023-06-14T06:28:18;20.10;57.50
21580;DHT22;10951;59.656;9.666;2023-06-14T06:30:45;20.00;58.00
21580;DHT22;10951;59.656;9.666;2023-06-14T06:33:12;20.00;58.00
21580;DHT22;10951;59.656;9.666;2023-06-14T06:35:40;20.10;58.00
21580;DHT22;10951;59.656;9.666;2023-06-14T06:38:07;20.20;57.80
21580;DHT22;10951;59.656;9.666;2023-06-14T06:40:37;20.30;57.20
21580;DHT22;10951;59.656;9.666;2023-06-14T06:43:04;20.40;57.20
21580;DHT22;10951;59.656;9.666;2023-06-14T06:45:39;20.50;57.10
21580;DHT22;10951;59.656;9.666;2023-06-14T06:48:06;20.80;57.30
21580;DHT22;10951;59.656;9.666;2023-06-14T06:50:33;21.20;57.40
21580;DHT22;10951;59.656;9.666;2023-06-14T06:53:00;21.30;56.20
21580;DHT22;10951;59.656;9.666;2023-06-14T06:55:27;21.40;55.90
21580;DHT22;10951;59.656;9.666;2023-06-14T06:57:54;21.70;56.20
21580;DHT22;10951;59.656;9.666;2023-06-14T07:00:21;22.00;55.70
21580;DHT22;10951;59.656;9.666;2023-06-14T07:02:48;22.40;55.30
21580;DHT22;10951;59.656;9.666;2023-06-14T07:05:15;22.70;54.20
21580;DHT22;10951;59.656;9.666;2023-06-14T07:07:42;23.10;53.90
21580;DHT22;10951;59.656;9.666;2023-06-14T07:10:09;23.50;52.80
21580;DHT22;10951;59.656;9.666;2023-06-14T07:12:37;23.70;51.20
21580;DHT22;10951;59.656;9.666;2023-06-14T07:15:07;23.90;50.30
21580;DHT22;10951;59.656;9.666;2023-06-14T07:17:35;24.00;50.30
21580;DHT22;10951;59.656;9.666;2023-06-14T07:20:04;24.10;49.80
21580;DHT22;10951;59.656;9.666;2023-06-14T07:22:41;24.20;50.00
21580;DHT22;10951;59.656;9.666;2023-06-14T07:25:09;24.40;50.60
21580;DHT22;10951;59.656;9.666;2023-06-14T07:27:40;24.50;49.30
21580;DHT22;10951;59.656;9.666;2023-06-14T07:30:08;24.80;49.40
21580;DHT22;10951;59.656;9.666;2023-06-14T07:32:36;24.90;49.20
21580;DHT22;10951;59.656;9.666;2023-06-14T07:35:03;25.20;48.70
21580;DHT22;10951;59.656;9.666;2023-06-14T07:37:31;25.40;48.00
21580;DHT22;10951;59.656;9.666;2023-06-14T07:39:58;25.60;47.80
21580;DHT22;10951;59.656;9.666;2023-06-14T07:42:25;25.80;47.80
21580;DHT22;10951;59.656;9.666;2023-06-14T07:44:52;26.00;47.60
21580;DHT22;10951;59.656;9.666;2023-06-14T07:47:20;26.10;47.20
21580;DHT22;10951;59.656;9.666;2023-06-14T07:49:47;26.30;47.70
21580;DHT22;10951;59.656;9.666;2023-06-14T07:52:15;26.50;47.60
21580;DHT22;10951;59.656;9.666;2023-06-14T07:54:42;26.70;47.90
21580;DHT22;10951;59.656;9.666;2023-06-14T07:57:09;26.90;47.40
21580;DHT22;10951;59.656;9.666;2023-06-14T07:59:36;26.90;46.40
21580;DHT22;10951;59.656;9.666;2023-06-14T08:02:03;27.00;47.30
21580;DHT22;10951;59.656;9.666;2023-06-14T08:04:31;27.00;46.00
21580;DHT22;10951;59.656;9.666;2023-06-14T08:06:59;27.00;46.40
21580;DHT22;10951;59.656;9.666;2023-06-14T08:09:26;27.20;46.00
21580;DHT22;10951;59.656;9.666;2023-06-14T08:11:55;27.40;45.20
21580;DHT22;10951;59.656;9.666;2023-06-14T08:14:22;27.50;44.40
21580;DHT22;10951;59.656;9.666;2023-06-14T08:16:49;27.60;44.60
21580;DHT22;10951;59.656;9.666;2023-06-14T08:19:16;27.50;43.60
21580;DHT22;10951;59.656;9.666;2023-06-14T08:21:43;27.30;43.40
21580;DHT22;10951;59.656;9.666;2023-06-14T08:24:13;27.20;44.20
21580;DHT22;10951;59.656;9.666;2023-06-14T08:26:40;27.10;43.40
21580;DHT22;10951;59.656;9.666;2023-06-14T08:29:08;26.90;43.10
21580;DHT22;10951;59.656;9.666;2023-06-14T08:31:34;26.90;43.90
21580;DHT22;10951;59.656;9.666;2023-06-14T08:34:02;26.80;43.90
21580;DHT22;10951;59.656;9.666;2023-06-14T08:36:32;26.70;43.50
21580;DHT22;10951;59.656;9.666;2023-06-14T08:38:59;26.60;44.30
21580;DHT22;10951;59.656;9.666;2023-06-14T08:41:28;26.20;44.70
21580;DHT22;10951;59.656;9.666;2023-06-14T08:43:56;25.90;45.30
21580;DHT22;10951;59.656;9.666;2023-06-14T08:46:26;25.80;45.10
21580;DHT22;10951;59.656;9.666;2023-06-14T08:48:55;26.00;45.70
21580;DHT22;10951;59.656;9.666;2023-06-14T08:51:26;26.30;44.60
21580;DHT22;10951;59.656;9.666;2023-06-14T08:54:00;26.60;45.30
21580;DHT22;10951;59.656;9.666;2023-06-14T08:56:28;26.30;42.60
21580;DHT22;10951;59.656;9.666;2023-06-14T08:58:57;26.30;42.50
21580;DHT22;10951;59.656;9.666;2023-06-14T09:01:24;26.30;43.00
21580;DHT22;10951;59.656;9.666;2023-06-14T09:03:51;26.20;41.50
21580;DHT22;10951;59.656;9.666;2023-06-14T09:06:19;26.30;40.90
21580;DHT22;10951;59.656;9.666;2023-06-14T09:08:49;26.50;40.60
21580;DHT22;10951;59.656;9.666;2023-06-14T09:11:17;26.70;40.60
21580;DHT22;10951;59.656;9.666;2023-06-14T09:13:49;26.80;40.80
21580;DHT22;10951;59.656;9.666;2023-06-14T09:16:17;27.00;42.20
21580;DHT22;10951;59.656;9.666;2023-06-14T09:18:45;26.90;41.50
21580;DHT22;10951;59.656;9.666;2023-06-14T09:21:16;26.80;41.50
21580;DHT22;10951;59.656;9.666;2023-06-14T09:23:45;26.90;41.40
21580;DHT22;10951;59.656;9.666;2023-06-14T09:26:14;26.90;41.20
21580;DHT22;10951;59.656;9.666;2023-06-14T09:28:51;26.90;40.70
21580;DHT22;10951;59.656;9.666;2023-06-14T09:31:19;26.60;40.80
21580;DHT22;10951;59.656;9.666;2023-06-14T09:33:48;26.50;42.20
21580;DHT22;10951;59.656;9.666;2023-06-14T09:36:22;26.50;41.60
21580;DHT22;10951;59.656;9.666;2023-06-14T09:39:00;26.60;41.30
21580;DHT22;10951;59.656;9.666;2023-06-14T09:44:03;26.40;41.20
21580;DHT22;10951;59.656;9.666;2023-06-14T09:46:36;26.30;40.60
21580;DHT22;10951;59.656;9.666;2023-06-14T09:49:04;26.40;41.40
21580;DHT22;10951;59.656;9.666;2023-06-14T09:51:32;26.50;40.80
21580;DHT22;10951;59.656;9.666;2023-06-14T09:54:01;26.70;41.20
21580;DHT22;10951;59.656;9.666;2023-06-14T09:56:30;26.80;39.90
21580;DHT22;10951;59.656;9.666;2023-06-14T09:58:58;26.90;39.50
21580;DHT22;10951;59.656;9.666;2023-06-14T10:01:34;26.90;39.00
21580;DHT22;10951;59.656;9.666;2023-06-14T10:04:06;27.20;39.60
21580;DHT22;10951;59.656;9.666;2023-06-14T10:06:40;27.50;39.50
21580;DHT22;10951;59.656;9.666;2023-06-14T10:09:09;27.70;38.30
21580;DHT22;10951;59.656;9.666;2023-06-14T10:11:37;27.60;39.10
21580;DHT22;10951;59.656;9.666;2023-06-14T10:14:07;27.60;37.60
21580;DHT22;10951;59.656;9.666;2023-06-14T10:16:39;27.80;39.50
21580;DHT22;10951;59.656;9.666;2023-06-14T10:22:05;28.50;34.40
21580;DHT22;10951;59.656;9.666;2023-06-14T10:24:40;28.70;33.00
21580;DHT22;10951;59.656;9.666;2023-06-14T10:27:08;28.70;35.20
21580;DHT22;10951;59.656;9.666;2023-06-14T10:32:24;28.90;34.80
21580;DHT22;10951;59.656;9.666;2023-06-14T10:35:00;29.00;35.40
21580;DHT22;10951;59.656;9.666;2023-06-14T10:37:28;29.20;35.00
21580;DHT22;10951;59.656;9.666;2023-06-14T10:39:55;29.20;35.70
21580;DHT22;10951;59.656;9.666;2023-06-14T10:42:33;29.00;36.40
21580;DHT22;10951;59.656;9.666;2023-06-14T10:45:01;28.90;37.10
21580;DHT22;10951;59.656;9.666;2023-06-14T10:47:32;28.70;37.20
21580;DHT22;10951;59.656;9.666;2023-06-14T10:52:34;28.70;38.00
21580;DHT22;10951;59.656;9.666;2023-06-14T10:57:44;29.50;38.70
21580;DHT22;10951;59.656;9.666;2023-06-14T11:00:20;30.00;36.20
21580;DHT22;10951;59.656;9.666;2023-06-14T11:05:51;30.10;35.50
21580;DHT22;10951;59.656;9.666;2023-06-14T11:11:08;30.80;33.90
21580;DHT22;10951;59.656;9.666;2023-06-14T11:13:38;31.00;33.30
21580;DHT22;10951;59.656;9.666;2023-06-14T11:16:13;31.00;33.50
21580;DHT22;10951;59.656;9.666;2023-06-14T11:18:41;31.10;35.00
21580;DHT22;10951;59.656;9.666;2023-06-14T11:21:08;31.20;32.90
21580;DHT22;10951;59.656;9.666;2023-06-14T11:23:37;31.40;33.90
21580;DHT22;10951;59.656;9.666;2023-06-14T11:26:04;31.20;30.80
21580;DHT22;10951;59.656;9.666;2023-06-14T11:28:39;31.30;32.10
21580;DHT22;10951;59.656;9.666;2023-06-14T11:31:07;31.30;32.40
21580;DHT22;10951;59.656;9.666;2023-06-14T11:33:34;31.00;33.10
21580;DHT22;10951;59.656;9.666;2023-06-14T11:36:06;31.00;33.50
21580;DHT22;10951;59.656;9.666;2023-06-14T11:38:36;30.80;33.60
21580;DHT22;10951;59.656;9.666;2023-06-14T11:41:04;30.70;33.90
21580;DHT22;10951;59.656;9.666;2023-06-14T11:43:31;30.80;33.70
21580;DHT22;10951;59.656;9.666;2023-06-14T11:46:00;31.10;32.10
21580;DHT22;10951;59.656;9.666;2023-06-14T11:48:42;31.30;32.80
21580;DHT22;10951;59.656;9.666;2023-06-14T11:51:09;31.30;31.30
21580;DHT22;10951;59.656;9.666;2023-06-14T11:53:36;31.20;31.70
21580;DHT22;10951;59.656;9.666;2023-06-14T11:56:03;30.80;32.70
21580;DHT22;10951;59.656;9.666;2023-06-14T11:58:30;30.70;33.20
21580;DHT22;10951;59.656;9.666;2023-06-14T12:00:57;30.70;32.20
21580;DHT22;10951;59.656;9.666;2023-06-14T12:03:25;30.80;32.60
21580;DHT22;10951;59.656;9.666;2023-06-14T12:06:09;30.60;31.50
21580;DHT22;10951;59.656;9.666;2023-06-14T12:08:38;30.30;31.30
21580;DHT22;10951;59.656;9.666;2023-06-14T12:11:14;30.10;32.30
21580;DHT22;10951;59.656;9.666;2023-06-14T12:13:42;29.90;31.60
21580;DHT22;10951;59.656;9.666;2023-06-14T12:16:10;29.90;33.00
21580;DHT22;10951;59.656;9.666;2023-06-14T12:18:39;29.80;33.30
21580;DHT22;10951;59.656;9.666;2023-06-14T12:21:10;30.00;34.20
21580;DHT22;10951;59.656;9.666;2023-06-14T12:23:46;30.30;33.70
21580;DHT22;10951;59.656;9.666;2023-06-14T12:26:15;30.50;33.00
21580;DHT22;10951;59.656;9.666;2023-06-14T12:28:44;30.70;34.20
21580;DHT22;10951;59.656;9.666;2023-06-14T12:31:12;31.00;33.30
21580;DHT22;10951;59.656;9.666;2023-06-14T12:33:40;31.00;32.20
21580;DHT22;10951;59.656;9.666;2023-06-14T12:36:08;30.90;32.10
21580;DHT22;10951;59.656;9.666;2023-06-14T12:38:37;31.00;33.00
21580;DHT22;10951;59.656;9.666;2023-06-14T12:41:03;31.00;33.60
21580;DHT22;10951;59.656;9.666;2023-06-14T12:43:31;30.90;32.90
21580;DHT22;10951;59.656;9.666;2023-06-14T12:45:58;30.80;32.60
21580;DHT22;10951;59.656;9.666;2023-06-14T12:48:25;30.90;33.60
21580;DHT22;10951;59.656;9.666;2023-06-14T12:50:58;31.10;33.10
21580;DHT22;10951;59.656;9.666;2023-06-14T12:53:25;31.30;33.40
21580;DHT22;10951;59.656;9.666;2023-06-14T12:55:52;31.50;33.70
21580;DHT22;10951;59.656;9.666;2023-06-14T12:58:19;31.60;32.90
21580;DHT22;10951;59.656;9.666;2023-06-14T13:00:46;31.40;32.40
21580;DHT22;10951;59.656;9.666;2023-06-14T13:03:13;31.40;32.60
21580;DHT22;10951;59.656;9.666;2023-06-14T13:05:41;31.40;32.20
21580;DHT22;10951;59.656;9.666;2023-06-14T13:08:09;31.40;32.20
21580;DHT22;10951;59.656;9.666;2023-06-14T13:10:36;31.30;31.60
21580;DHT22;10951;59.656;9.666;2023-06-14T13:13:03;31.10;32.20
21580;DHT22;10951;59.656;9.666;2023-06-14T13:15:30;31.20;33.20
21580;DHT22;10951;59.656;9.666;2023-06-14T13:17:57;31.30;33.10
21580;DHT22;10951;59.656;9.666;2023-06-14T13:20:24;31.40;32.70
21580;DHT22;10951;59.656;9.666;2023-06-14T13:22:51;31.60;32.40
21580;DHT22;10951;59.656;9.666;2023-06-14T13:25:18;31.60;32.00
21580;DHT22;10951;59.656;9.666;2023-06-14T13:27:45;31.60;32.40
21580;DHT22;10951;59.656;9.666;2023-06-14T13:30:13;31.50;32.00
21580;DHT22;10951;59.656;9.666;2023-06-14T13:32:41;31.40;32.70
21580;DHT22;10951;59.656;9.666;2023-06-14T13:35:08;31.30;32.70
21580;DHT22;10951;59.656;9.666;2023-06-14T13:37:34;31.10;32.10
21580;DHT22;10951;59.656;9.666;2023-06-14T13:40:01;31.10;32.90
21580;DHT22;10951;59.656;9.666;2023-06-14T13:42:29;31.30;31.30
21580;DHT22;10951;59.656;9.666;2023-06-14T13:44:58;31.20;32.10
21580;DHT22;10951;59.656;9.666;2023-06-14T13:47:25;31.20;32.00
21580;DHT22;10951;59.656;9.666;2023-06-14T13:49:52;30.80;32.80
21580;DHT22;10951;59.656;9.666;2023-06-14T13:52:19;30.80;32.90
21580;DHT22;10951;59.656;9.666;2023-06-14T13:54:46;30.80;33.00
21580;DHT22;10951;59.656;9.666;2023-06-14T13:57:16;30.80;32.40
21580;DHT22;10951;59.656;9.666;2023-06-14T13:59:43;30.90;32.50
21580;DHT22;10951;59.656;9.666;2023-06-14T14:02:13;31.00;33.00
21580;DHT22;10951;59.656;9.666;2023-06-14T14:04:40;31.10;33.00
21580;DHT22;10951;59.656;9.666;2023-06-14T14:07:07;31.30;32.10
21580;DHT22;10951;59.656;9.666;2023-06-14T14:09:35;31.20;32.00
21580;DHT22;10951;59.656;9.666;2023-06-14T14:12:02;31.10;32.30
21580;DHT22;10951;59.656;9.666;2023-06-14T14:14:30;31.10;32.40
21580;DHT22;10951;59.656;9.666;2023-06-14T14:16:57;30.80;32.30
21580;DHT22;10951;59.656;9.666;2023-06-14T14:19:24;30.60;32.60
21580;DHT22;10951;59.656;9.666;2023-06-14T14:21:51;30.50;32.70
21580;DHT22;10951;59.656;9.666;2023-06-14T14:24:20;30.50;32.90
21580;DHT22;10951;59.656;9.666;2023-06-14T14:26:48;30.60;33.20
21580;DHT22;10951;59.656;9.666;2023-06-14T14:29:16;30.70;32.70
21580;DHT22;10951;59.656;9.666;2023-06-14T14:31:44;30.70;32.40
21580;DHT22;10951;59.656;9.666;2023-06-14T14:34:11;30.80;32.60
21580;DHT22;10951;59.656;9.666;2023-06-14T14:36:38;30.90;32.50
21580;DHT22;10951;59.656;9.666;2023-06-14T14:39:09;31.00;32.90
21580;DHT22;10951;59.656;9.666;2023-06-14T14:41:36;31.00;31.90
21580;DHT22;10951;59.656;9.666;2023-06-14T14:44:08;31.10;32.70
21580;DHT22;10951;59.656;9.666;2023-06-14T14:46:35;31.30;31.00
21580;DHT22;10951;59.656;9.666;2023-06-14T14:49:02;31.20;31.20
21580;DHT22;10951;59.656;9.666;2023-06-14T14:51:29;31.20;31.80
21580;DHT22;10951;59.656;9.666;2023-06-14T14:53:56;31.20;32.30
21580;DHT22;10951;59.656;9.666;2023-06-14T14:56:23;31.30;32.00
21580;DHT22;10951;59.656;9.666;2023-06-14T14:58:50;31.40;33.00
21580;DHT22;10951;59.656;9.666;2023-06-14T15:01:18;31.50;32.20
21580;DHT22;10951;59.656;9.666;2023-06-14T15:03:45;31.70;33.10
21580;DHT22;10951;59.656;9.666;2023-06-14T15:06:15;31.90;32.50
21580;DHT22;10951;59.656;9.666;2023-06-14T15:08:43;32.00;31.60
21580;DHT22;10951;59.656;9.666;2023-06-14T15:11:10;32.10;32.90
21580;DHT22;10951;59.656;9.666;2023-06-14T15:13:36;32.30;32.40
21580;DHT22;10951;59.656;9.666;2023-06-14T15:16:03;32.50;32.10
21580;DHT22;10951;59.656;9.666;2023-06-14T15:18:30;32.60;31.30
21580;DHT22;10951;59.656;9.666;2023-06-14T15:20:57;32.60;32.70
21580;DHT22;10951;59.656;9.666;2023-06-14T15:23:24;32.60;31.10
21580;DHT22;10951;59.656;9.666;2023-06-14T15:25:51;32.50;31.40
21580;DHT22;10951;59.656;9.666;2023-06-14T15:28:18;32.40;31.90
21580;DHT22;10951;59.656;9.666;2023-06-14T15:30:46;32.20;31.40
21580;DHT22;10951;59.656;9.666;2023-06-14T15:33:13;32.10;32.10
21580;DHT22;10951;59.656;9.666;2023-06-14T15:35:39;32.00;32.70
21580;DHT22;10951;59.656;9.666;2023-06-14T15:38:07;31.80;32.10
21580;DHT22;10951;59.656;9.666;2023-06-14T15:40:34;31.50;33.10
21580;DHT22;10951;59.656;9.666;2023-06-14T15:43:01;31.10;31.90
21580;DHT22;10951;59.656;9.666;2023-06-14T15:45:28;30.60;32.40
21580;DHT22;10951;59.656;9.666;2023-06-14T15:47:55;30.20;32.90
21580;DHT22;10951;59.656;9.666;2023-06-14T15:50:22;29.90;33.30
21580;DHT22;10951;59.656;9.666;2023-06-14T15:52:49;29.50;33.30
21580;DHT22;10951;59.656;9.666;2023-06-14T15:55:18;29.30;32.10
21580;DHT22;10951;59.656;9.666;2023-06-14T15:57:45;29.00;31.90
21580;DHT22;10951;59.656;9.666;2023-06-14T16:00:13;28.90;31.70